Time;durP1;ratioP1;P1;durP2;ratioP2;P2;SDS_P1;SDS_P2;PMS_P1;PMS_P2;Temp;Humidity;BMP_temperature;BMP_pressure;BME280_temperature;BME280_humidity;BME280_pressure;Samples;Min_cycle;Max_cycle;Signal;HPM_P1;HPM_P2
2023/07/28 00:02:12;;;;;;;41.63;16.42;;;;;;;;;;5069568;28;20044;-58
2023/07/28 00:04:38;;;;;;;50.42;16.50;;;;;;;;;;5071521;28;20047;-58
2023/07/28 00:07:04;;;;;;;40.10;15.32;;;;;;;;;;5063284;28;20036;-58
2023/07/28 00:09:31;;;;;;;49.45;16.17;;;;;;;;;;5063608;28;20128;-58
2023/07/28 00:11:58;;;;;;;51.10;17.00;;;;;;;;;;5058027;28;20210;-58
2023/07/28 00:14:25;;;;;;;64.88;18.08;;;;;;;;;;5066564;28;20048;-58
2023/07/28 00:16:51;;;;;;;47.72;15.50;;;;;;;;;;5058972;28;20044;-58
2023/07/28 00:19:18;;;;;;;62.67;17.20;;;;;;;;;;5064475;28;20101;-58
2023/07/28 00:21:45;;;;;;;56.05;17.85;;;;;;;;;;5051446;28;20071;-58
2023/07/28 00:24:11;;;;;;;54.90;17.85;;;;;;;;;;5058485;28;20040;-58
2023/07/28 00:26:37;;;;;;;53.88;16.70;;;;;;;;;;5049734;28;20041;-58
2023/07/28 00:29:06;;;;;;;50.92;16.88;;;;;;;;;;5051392;28;20041;-58
2023/07/28 00:31:32;;;;;;;57.53;18.02;;;;;;;;;;5049444;28;20045;-58
2023/07/28 00:33:58;;;;;;;46.25;15.60;;;;;;;;;;5048660;28;20108;-58
2023/07/28 00:36:25;;;;;;;50.25;15.80;;;;;;;;;;5050556;28;20491;-58
2023/07/28 00:38:51;;;;;;;53.53;17.40;;;;;;;;;;5054447;28;20041;-58
2023/07/28 00:41:17;;;;;;;56.58;16.70;;;;;;;;;;5051413;28;20089;-58
2023/07/28 00:43:43;;;;;;;54.78;18.08;;;;;;;;;;5053304;28;20044;-58
2023/07/28 00:46:10;;;;;;;49.63;15.63;;;;;;;;;;5050075;28;20057;-58
2023/07/28 00:48:37;;;;;;;53.13;17.73;;;;;;;;;;5047750;28;20048;-58
2023/07/28 00:51:03;;;;;;;51.85;16.77;;;;;;;;;;5051888;28;20047;-58
2023/07/28 00:53:30;;;;;;;43.42;16.52;;;;;;;;;;5048164;28;20069;-58
2023/07/28 00:55:56;;;;;;;51.95;16.90;;;;;;;;;;5049302;28;20064;-58
2023/07/28 00:58:22;;;;;;;44.63;17.17;;;;;;;;;;5049659;28;20063;-58
2023/07/28 01:00:48;;;;;;;65.35;18.80;;;;;;;;;;5058243;28;20040;-58
2023/07/28 01:03:15;;;;;;;66.00;18.30;;;;;;;;;;5053632;28;20052;-58
2023/07/28 01:05:48;;;;;;;53.33;17.38;;;;;;;;;;5052288;28;20122;-58
2023/07/28 01:08:19;;;;;;;51.03;18.38;;;;;;;;;;5050654;28;20553;-58
2023/07/28 01:10:46;;;;;;;52.25;19.73;;;;;;;;;;5053534;28;20123;-58
2023/07/28 01:13:12;;;;;;;53.85;20.27;;;;;;;;;;5062268;28;20048;-58
2023/07/28 01:15:38;;;;;;;61.35;20.83;;;;;;;;;;5065891;28;20519;-58
2023/07/28 01:18:04;;;;;;;75.65;21.13;;;;;;;;;;5056956;28;20051;-58
2023/07/28 01:20:32;;;;;;;60.28;19.27;;;;;;;;;;5051897;28;20063;-58
2023/07/28 01:22:58;;;;;;;71.05;20.10;;;;;;;;;;5051637;28;20079;-58
2023/07/28 01:25:43;;;;;;;65.13;22.27;;;;;;;;;;5053042;28;20118;-58
2023/07/28 01:28:10;;;;;;;64.97;19.75;;;;;;;;;;5061501;28;20040;-58
2023/07/28 01:30:36;;;;;;;45.97;17.27;;;;;;;;;;5063983;28;20060;-58
2023/07/28 01:33:06;;;;;;;63.88;19.17;;;;;;;;;;5059834;28;20041;-58
2023/07/28 01:35:33;;;;;;;65.75;19.35;;;;;;;;;;5067764;28;20053;-58
2023/07/28 01:37:59;;;;;;;55.88;17.85;;;;;;;;;;5073380;28;20067;-58
2023/07/28 01:40:25;;;;;;;62.95;18.63;;;;;;;;;;5065684;28;20463;-58
2023/07/28 01:42:51;;;;;;;54.47;18.92;;;;;;;;;;5066642;28;20033;-58
2023/07/28 01:45:17;;;;;;;62.53;19.13;;;;;;;;;;5065756;28;20043;-58
2023/07/28 01:47:43;;;;;;;57.22;20.23;;;;;;;;;;5066976;28;20056;-58
2023/07/28 01:50:10;;;;;;;71.10;20.33;;;;;;;;;;5076839;28;20056;-58
2023/07/28 01:52:36;;;;;;;54.92;17.27;;;;;;;;;;5053009;28;20108;-58
2023/07/28 01:55:02;;;;;;;58.80;18.02;;;;;;;;;;5070209;28;20037;-58
2023/07/28 01:57:28;;;;;;;61.58;19.05;;;;;;;;;;5071524;28;20049;-58
2023/07/28 01:59:55;;;;;;;44.25;16.38;;;;;;;;;;5069594;28;20040;-58
2023/07/28 02:02:21;;;;;;;61.67;17.17;;;;;;;;;;5055396;28;20032;-58
2023/07/28 02:04:47;;;;;;;43.67;15.57;;;;;;;;;;5051049;28;20045;-58
2023/07/28 02:07:13;;;;;;;50.03;15.93;;;;;;;;;;5050954;28;20045;-59
2023/07/28 02:09:39;;;;;;;42.35;15.45;;;;;;;;;;5052729;28;20056;-58
2023/07/28 02:12:06;;;;;;;51.38;16.08;;;;;;;;;;5051061;28;20063;-58
2023/07/28 02:14:32;;;;;;;39.50;14.77;;;;;;;;;;5054041;28;20400;-58
2023/07/28 02:16:58;;;;;;;43.83;13.70;;;;;;;;;;5055914;28;20137;-58
2023/07/28 02:19:25;;;;;;;34.08;14.20;;;;;;;;;;5052088;28;20132;-58
2023/07/28 02:21:51;;;;;;;46.38;14.98;;;;;;;;;;5055088;28;20625;-58
2023/07/28 02:24:17;;;;;;;49.58;14.77;;;;;;;;;;5051806;28;20040;-58
2023/07/28 02:26:44;;;;;;;43.50;13.77;;;;;;;;;;5054668;28;20051;-58
2023/07/28 02:29:10;;;;;;;39.10;12.88;;;;;;;;;;5051923;28;20052;-58
2023/07/28 02:31:36;;;;;;;34.13;11.85;;;;;;;;;;5053639;28;20143;-58
2023/07/28 02:34:02;;;;;;;45.17;12.00;;;;;;;;;;5051519;28;20041;-58
2023/07/28 02:36:28;;;;;;;31.23;10.27;;;;;;;;;;5053592;28;20075;-58
2023/07/28 02:38:54;;;;;;;39.95;10.40;;;;;;;;;;5051051;28;20056;-58
2023/07/28 02:41:21;;;;;;;36.33;10.13;;;;;;;;;;5052681;28;20124;-58
2023/07/28 02:43:47;;;;;;;35.97;10.70;;;;;;;;;;5052115;28;20041;-58
2023/07/28 02:46:13;;;;;;;30.50;9.57;;;;;;;;;;5061412;28;20617;-58
2023/07/28 02:48:39;;;;;;;27.13;9.02;;;;;;;;;;5050452;28;20670;-58
2023/07/28 02:51:05;;;;;;;31.23;9.20;;;;;;;;;;5052033;28;20048;-58
2023/07/28 02:53:31;;;;;;;35.63;8.95;;;;;;;;;;5053608;28;20051;-58
2023/07/28 02:55:58;;;;;;;32.53;9.40;;;;;;;;;;5065109;28;20162;-58
2023/07/28 02:58:24;;;;;;;26.45;8.38;;;;;;;;;;5068083;28;20060;-58
2023/07/28 03:00:52;;;;;;;37.67;9.35;;;;;;;;;;5070521;28;20133;-58
2023/07/28 03:03:18;;;;;;;31.73;9.27;;;;;;;;;;5059197;28;20041;-58
2023/07/28 03:05:44;;;;;;;36.03;9.18;;;;;;;;;;5056582;28;20377;-58
2023/07/28 03:08:11;;;;;;;32.53;9.98;;;;;;;;;;5071627;28;20040;-58
2023/07/28 03:10:37;;;;;;;34.72;9.55;;;;;;;;;;5056118;28;20040;-58
2023/07/28 03:13:03;;;;;;;48.05;11.18;;;;;;;;;;5050830;28;20384;-58
2023/07/28 03:15:29;;;;;;;36.67;9.07;;;;;;;;;;5049327;28;20074;-58
2023/07/28 03:17:55;;;;;;;46.60;11.18;;;;;;;;;;5061550;28;20495;-58
2023/07/28 03:20:21;;;;;;;40.65;9.07;;;;;;;;;;5051117;28;20037;-58
2023/07/28 03:22:48;;;;;;;29.98;9.55;;;;;;;;;;5049712;28;20377;-58
2023/07/28 03:25:14;;;;;;;47.25;10.38;;;;;;;;;;5050769;28;20067;-58
2023/07/28 03:27:40;;;;;;;34.83;10.80;;;;;;;;;;5053154;28;20451;-58
2023/07/28 03:30:09;;;;;;;30.40;10.52;;;;;;;;;;5049300;28;20068;-58
2023/07/28 03:32:35;;;;;;;32.00;11.00;;;;;;;;;;5052798;28;20424;-58
2023/07/28 03:35:01;;;;;;;34.50;10.70;;;;;;;;;;5049735;28;20060;-58
2023/07/28 03:37:27;;;;;;;33.70;10.88;;;;;;;;;;5052017;28;20115;-58
2023/07/28 03:39:54;;;;;;;43.85;12.50;;;;;;;;;;5049285;28;20354;-58
2023/07/28 03:42:20;;;;;;;32.35;11.48;;;;;;;;;;5050666;28;20043;-58
2023/07/28 03:44:46;;;;;;;42.10;11.82;;;;;;;;;;5050866;28;20052;-58
2023/07/28 03:47:12;;;;;;;35.90;10.65;;;;;;;;;;5051211;28;20060;-58
2023/07/28 03:49:38;;;;;;;37.53;11.23;;;;;;;;;;5051881;28;20154;-58
2023/07/28 03:52:05;;;;;;;33.17;10.60;;;;;;;;;;5048878;28;20098;-58
2023/07/28 03:54:31;;;;;;;41.03;12.10;;;;;;;;;;5050492;28;20053;-58
2023/07/28 03:56:57;;;;;;;27.40;10.48;;;;;;;;;;5049323;28;20053;-58
2023/07/28 03:59:23;;;;;;;31.05;10.48;;;;;;;;;;5049994;28;20056;-58
2023/07/28 04:01:49;;;;;;;34.63;10.82;;;;;;;;;;5058086;28;20492;-58
2023/07/28 04:04:16;;;;;;;33.30;12.27;;;;;;;;;;5048443;28;20052;-58
2023/07/28 04:06:46;;;;;;;27.98;9.93;;;;;;;;;;5049405;28;20047;-58
2023/07/28 04:09:13;;;;;;;32.28;10.30;;;;;;;;;;5052707;28;20194;-58
2023/07/28 04:11:40;;;;;;;26.88;9.88;;;;;;;;;;5065993;28;20092;-58
2023/07/28 04:14:06;;;;;;;28.92;10.70;;;;;;;;;;5069501;28;20395;-58
2023/07/28 04:16:32;;;;;;;37.00;10.60;;;;;;;;;;5067396;28;20067;-58
2023/07/28 04:18:58;;;;;;;23.10;9.60;;;;;;;;;;5058141;28;20120;-58
2023/07/28 04:21:25;;;;;;;26.30;9.48;;;;;;;;;;5073325;28;20086;-58
2023/07/28 04:23:51;;;;;;;28.90;8.82;;;;;;;;;;5066866;28;20036;-58
2023/07/28 04:26:18;;;;;;;35.15;9.07;;;;;;;;;;5061222;28;20130;-58
2023/07/28 04:28:44;;;;;;;24.05;10.25;;;;;;;;;;5061315;28;20080;-58
2023/07/28 04:31:11;;;;;;;34.50;10.18;;;;;;;;;;5051199;28;20044;-58
2023/07/28 04:33:37;;;;;;;23.48;9.02;;;;;;;;;;5050658;28;20424;-58
2023/07/28 04:36:04;;;;;;;28.13;10.23;;;;;;;;;;5053011;28;20037;-58
2023/07/28 04:38:30;;;;;;;24.02;9.63;;;;;;;;;;5055647;28;20520;-58
2023/07/28 04:40:56;;;;;;;29.75;11.30;;;;;;;;;;5056130;28;20037;-58
2023/07/28 04:43:22;;;;;;;30.42;11.20;;;;;;;;;;5074256;28;20064;-57
2023/07/28 04:45:48;;;;;;;30.10;10.55;;;;;;;;;;5059295;28;20041;-58
2023/07/28 04:48:14;;;;;;;30.33;11.38;;;;;;;;;;5053424;28;20100;-58
2023/07/28 04:50:41;;;;;;;26.30;12.50;;;;;;;;;;5053646;28;20144;-58
2023/07/28 04:53:07;;;;;;;24.77;13.07;;;;;;;;;;5055738;28;20048;-58
2023/07/28 04:55:33;;;;;;;23.88;13.75;;;;;;;;;;5055194;28;20483;-58
2023/07/28 04:57:59;;;;;;;30.55;14.70;;;;;;;;;;5053088;28;20051;-58
2023/07/28 05:00:25;;;;;;;32.00;14.65;;;;;;;;;;5053536;28;20043;-58
2023/07/28 05:02:51;;;;;;;26.08;13.13;;;;;;;;;;5051978;28;20051;-58
2023/07/28 05:05:18;;;;;;;28.15;15.15;;;;;;;;;;5052438;28;20124;-58
2023/07/28 05:07:44;;;;;;;26.60;15.15;;;;;;;;;;5055858;28;20393;-58
2023/07/28 05:10:10;;;;;;;27.83;16.67;;;;;;;;;;5069920;28;20510;-58
2023/07/28 05:12:36;;;;;;;29.30;16.75;;;;;;;;;;5073205;28;20055;-58
2023/07/28 05:15:04;;;;;;;29.25;15.65;;;;;;;;;;5062137;28;20072;-58
2023/07/28 05:17:30;;;;;;;30.73;16.60;;;;;;;;;;5069727;28;20139;-58
2023/07/28 05:19:56;;;;;;;23.27;16.35;;;;;;;;;;5072497;28;20112;-58
2023/07/28 05:22:22;;;;;;;27.48;16.70;;;;;;;;;;5079466;28;20045;-58
2023/07/28 05:24:49;;;;;;;26.17;17.75;;;;;;;;;;5073370;28;20044;-58
2023/07/28 05:27:15;;;;;;;24.50;17.15;;;;;;;;;;5072727;28;20066;-58
2023/07/28 05:29:41;;;;;;;26.00;17.52;;;;;;;;;;5072127;28;20507;-58
2023/07/28 05:32:08;;;;;;;30.35;16.58;;;;;;;;;;5072900;28;20044;-58
2023/07/28 05:34:34;;;;;;;28.00;17.38;;;;;;;;;;5071429;28;20080;-58
2023/07/28 05:37:00;;;;;;;28.70;18.02;;;;;;;;;;5074055;28;20044;-58
2023/07/28 05:39:26;;;;;;;24.92;17.05;;;;;;;;;;5058230;28;20096;-58
2023/07/28 05:41:52;;;;;;;25.73;17.85;;;;;;;;;;5072892;28;20429;-58
2023/07/28 05:44:19;;;;;;;23.90;16.42;;;;;;;;;;5070535;28;20037;-58
2023/07/28 05:46:48;;;;;;;26.80;18.45;;;;;;;;;;5070682;28;20056;-58
2023/07/28 05:49:14;;;;;;;27.63;16.88;;;;;;;;;;5080531;28;20051;-58
2023/07/28 05:51:40;;;;;;;35.55;18.40;;;;;;;;;;5070880;28;20040;-58
2023/07/28 05:54:07;;;;;;;28.50;18.40;;;;;;;;;;5067617;28;20037;-59
2023/07/28 05:56:33;;;;;;;30.48;17.73;;;;;;;;;;5072217;28;20048;-59
2023/07/28 05:58:59;;;;;;;25.10;17.25;;;;;;;;;;5062673;28;20040;-59
2023/07/28 06:01:27;;;;;;;25.02;16.45;;;;;;;;;;5063932;28;20484;-59
2023/07/28 06:03:58;;;;;;;30.35;17.58;;;;;;;;;;5053143;28;20048;-58
2023/07/28 06:06:25;;;;;;;29.58;17.55;;;;;;;;;;5063673;28;20048;-58
2023/07/28 06:08:51;;;;;;;23.48;16.73;;;;;;;;;;5070433;28;20038;-59
2023/07/28 06:11:17;;;;;;;23.63;17.23;;;;;;;;;;5056846;28;20045;-59
2023/07/28 06:13:45;;;;;;;30.67;17.77;;;;;;;;;;5072250;28;20045;-58
2023/07/28 06:16:11;;;;;;;22.88;15.55;;;;;;;;;;5063237;28;20125;-59
2023/07/28 06:18:38;;;;;;;22.42;16.45;;;;;;;;;;5068459;28;20119;-58
2023/07/28 06:21:04;;;;;;;24.98;17.00;;;;;;;;;;5068462;28;20058;-58
2023/07/28 06:23:30;;;;;;;22.90;16.67;;;;;;;;;;5070269;28;20510;-59
2023/07/28 06:25:56;;;;;;;25.77;15.35;;;;;;;;;;5070774;28;20048;-58
2023/07/28 06:28:22;;;;;;;29.55;18.00;;;;;;;;;;5073185;28;20040;-58
2023/07/28 06:30:54;;;;;;;23.15;16.30;;;;;;;;;;5070191;28;20463;-59
2023/07/28 06:33:20;;;;;;;22.58;15.00;;;;;;;;;;5070223;28;20065;-59
2023/07/28 06:35:46;;;;;;;24.02;15.23;;;;;;;;;;5069720;28;20036;-59
2023/07/28 06:38:12;;;;;;;22.88;14.50;;;;;;;;;;5067607;28;20476;-59
2023/07/28 06:40:38;;;;;;;25.75;16.00;;;;;;;;;;5071998;28;20040;-59
2023/07/28 06:43:07;;;;;;;22.88;14.63;;;;;;;;;;5072408;28;20040;-59
2023/07/28 06:45:33;;;;;;;19.95;13.88;;;;;;;;;;5071102;28;20063;-59
2023/07/28 06:47:59;;;;;;;24.02;14.85;;;;;;;;;;5071859;28;20052;-59
2023/07/28 06:50:26;;;;;;;22.23;15.55;;;;;;;;;;5066878;28;20056;-59
2023/07/28 06:52:52;;;;;;;19.65;14.18;;;;;;;;;;5071714;28;20095;-59
2023/07/28 06:55:20;;;;;;;21.00;14.68;;;;;;;;;;5070720;28;20033;-58
2023/07/28 06:57:47;;;;;;;20.40;14.93;;;;;;;;;;5074902;28;20052;-59
2023/07/28 07:00:14;;;;;;;20.08;12.82;;;;;;;;;;5071964;28;20045;-59
2023/07/28 07:02:40;;;;;;;16.02;12.15;;;;;;;;;;5065850;28;20047;-59
2023/07/28 07:05:07;;;;;;;14.85;11.65;;;;;;;;;;5070069;28;20044;-59
2023/07/28 07:07:33;;;;;;;16.92;13.38;;;;;;;;;;5064294;28;20039;-58
2023/07/28 07:09:59;;;;;;;13.77;12.18;;;;;;;;;;5070092;28;20075;-58
2023/07/28 07:12:25;;;;;;;19.20;13.85;;;;;;;;;;5070000;28;20050;-59
2023/07/28 07:14:52;;;;;;;14.00;10.95;;;;;;;;;;5072028;28;20057;-58
2023/07/28 07:17:18;;;;;;;16.77;12.93;;;;;;;;;;5071748;28;20116;-58
2023/07/28 07:19:44;;;;;;;17.58;13.73;;;;;;;;;;5069685;28;20040;-58
2023/07/28 07:22:10;;;;;;;19.73;14.45;;;;;;;;;;5067430;28;20072;-58
2023/07/28 07:24:37;;;;;;;19.60;14.75;;;;;;;;;;5068567;28;20043;-59
2023/07/28 07:27:03;;;;;;;19.05;13.40;;;;;;;;;;5070778;28;20108;-58
2023/07/28 07:29:29;;;;;;;25.67;15.65;;;;;;;;;;5071135;28;20062;-58
2023/07/28 07:31:56;;;;;;;17.58;13.75;;;;;;;;;;5072203;28;20102;-58
2023/07/28 07:34:23;;;;;;;16.48;12.57;;;;;;;;;;5066767;28;20051;-58
2023/07/28 07:36:49;;;;;;;17.08;14.00;;;;;;;;;;5068744;28;20255;-59
2023/07/28 07:39:16;;;;;;;18.23;14.23;;;;;;;;;;5067919;28;20102;-58
2023/07/28 07:41:42;;;;;;;19.95;14.38;;;;;;;;;;5068411;28;20416;-58
2023/07/28 07:44:08;;;;;;;22.15;17.73;;;;;;;;;;5070262;28;20462;-58
2023/07/28 07:46:34;;;;;;;22.27;16.58;;;;;;;;;;5069837;28;20052;-58
2023/07/28 07:49:01;;;;;;;20.83;17.02;;;;;;;;;;5072907;28;20053;-59
2023/07/28 07:51:27;;;;;;;20.83;16.45;;;;;;;;;;5066915;28;20055;-58
2023/07/28 07:53:53;;;;;;;18.77;15.13;;;;;;;;;;5066614;28;20408;-58
2023/07/28 07:56:20;;;;;;;20.27;16.10;;;;;;;;;;5071221;28;20068;-59
2023/07/28 07:58:46;;;;;;;20.10;15.63;;;;;;;;;;5071620;28;20476;-58
2023/07/28 08:01:12;;;;;;;20.02;15.07;;;;;;;;;;5068342;28;20080;-59
2023/07/28 08:03:39;;;;;;;21.83;16.15;;;;;;;;;;5069246;28;20330;-58
2023/07/28 08:06:05;;;;;;;22.13;16.08;;;;;;;;;;5063193;28;20369;-59
2023/07/28 08:08:32;;;;;;;22.27;16.70;;;;;;;;;;5071126;28;20480;-59
2023/07/28 08:10:58;;;;;;;21.40;14.43;;;;;;;;;;5069033;28;20032;-59
2023/07/28 08:13:24;;;;;;;19.02;14.98;;;;;;;;;;5068732;28;20045;-59
2023/07/28 08:15:50;;;;;;;16.23;13.27;;;;;;;;;;5071017;28;20107;-59
2023/07/28 08:18:17;;;;;;;16.92;12.77;;;;;;;;;;5070084;28;20075;-59
2023/07/28 08:20:43;;;;;;;14.38;11.68;;;;;;;;;;5070538;28;20124;-59
2023/07/28 08:23:09;;;;;;;15.10;11.90;;;;;;;;;;5069327;28;20059;-59
2023/07/28 08:25:35;;;;;;;11.90;9.93;;;;;;;;;;5069981;28;20045;-59
2023/07/28 08:28:01;;;;;;;11.35;10.15;;;;;;;;;;5071957;28;20040;-59
2023/07/28 08:30:28;;;;;;;11.85;9.05;;;;;;;;;;5072999;28;20127;-59
2023/07/28 08:32:54;;;;;;;9.68;8.68;;;;;;;;;;5068263;28;20047;-59
2023/07/28 08:35:20;;;;;;;10.55;9.00;;;;;;;;;;5070106;28;20049;-59
2023/07/28 08:37:46;;;;;;;11.38;8.85;;;;;;;;;;5071746;28;20044;-59
2023/07/28 08:40:13;;;;;;;11.45;9.57;;;;;;;;;;5070845;28;20062;-59
2023/07/28 08:42:39;;;;;;;10.63;8.90;;;;;;;;;;5070655;28;20464;-59
2023/07/28 08:45:07;;;;;;;14.30;9.68;;;;;;;;;;5071579;28;20110;-59
2023/07/28 08:47:34;;;;;;;13.52;9.18;;;;;;;;;;5065820;28;20115;-59
2023/07/28 08:50:01;;;;;;;10.30;8.38;;;;;;;;;;5072368;28;20055;-59
2023/07/28 08:52:27;;;;;;;10.70;8.38;;;;;;;;;;5070393;28;20041;-59
2023/07/28 08:54:54;;;;;;;10.52;8.18;;;;;;;;;;5067744;28;20056;-59
2023/07/28 08:57:20;;;;;;;9.63;8.55;;;;;;;;;;5072520;28;20079;-59
2023/07/28 08:59:47;;;;;;;9.30;7.22;;;;;;;;;;5068495;28;20049;-59
2023/07/28 09:02:20;;;;;;;10.30;7.72;;;;;;;;;;5067501;28;20072;-59
2023/07/28 09:04:46;;;;;;;9.45;8.00;;;;;;;;;;5069196;28;20082;-59
2023/07/28 09:07:13;;;;;;;9.00;7.25;;;;;;;;;;5069581;28;20048;-59
2023/07/28 09:09:40;;;;;;;9.68;5.93;;;;;;;;;;5069514;28;20040;-59
2023/07/28 09:12:07;;;;;;;6.05;4.78;;;;;;;;;;5067615;28;20135;-59
2023/07/28 09:14:35;;;;;;;6.88;5.45;;;;;;;;;;5070181;28;20063;-59
2023/07/28 09:17:12;;;;;;;7.15;5.60;;;;;;;;;;5070744;28;20075;-59
2023/07/28 09:19:51;;;;;;;8.00;5.45;;;;;;;;;;5068460;28;20050;-59
2023/07/28 09:22:18;;;;;;;7.47;5.20;;;;;;;;;;5070654;28;20070;-59
2023/07/28 09:24:44;;;;;;;7.20;5.40;;;;;;;;;;5072974;28;20055;-59
2023/07/28 09:27:20;;;;;;;7.38;5.50;;;;;;;;;;5069893;28;20110;-59
2023/07/28 09:29:50;;;;;;;7.35;6.00;;;;;;;;;;5073385;28;20036;-59
2023/07/28 09:32:17;;;;;;;6.55;4.63;;;;;;;;;;5075330;28;20044;-59
2023/07/28 09:34:44;;;;;;;6.00;4.30;;;;;;;;;;5070673;28;20068;-59
2023/07/28 09:37:10;;;;;;;9.02;4.90;;;;;;;;;;5071497;28;20110;-59
2023/07/28 09:39:37;;;;;;;6.10;4.85;;;;;;;;;;5070966;28;20045;-59
2023/07/28 09:42:04;;;;;;;6.88;4.07;;;;;;;;;;5073838;28;20032;-59
2023/07/28 09:44:30;;;;;;;7.40;3.90;;;;;;;;;;5064254;28;20123;-63
2023/07/28 09:46:58;;;;;;;5.60;3.55;;;;;;;;;;5066080;28;20517;-59
2023/07/28 09:49:33;;;;;;;11.57;3.75;;;;;;;;;;5051770;28;20086;-59
2023/07/28 09:52:04;;;;;;;6.07;3.67;;;;;;;;;;5056088;28;20073;-58
2023/07/28 09:54:31;;;;;;;5.47;3.65;;;;;;;;;;5064600;28;20127;-59
2023/07/28 09:56:58;;;;;;;7.28;4.03;;;;;;;;;;5061486;28;20041;-59
2023/07/28 09:59:29;;;;;;;8.88;4.78;;;;;;;;;;5065949;28;20113;-63
2023/07/28 10:02:00;;;;;;;4.82;3.40;;;;;;;;;;5066665;28;20113;-59
2023/07/28 10:04:26;;;;;;;6.43;3.58;;;;;;;;;;5061098;28;20488;-59
2023/07/28 10:06:57;;;;;;;4.63;2.90;;;;;;;;;;5072540;28;20045;-59
2023/07/28 10:09:27;;;;;;;5.75;2.30;;;;;;;;;;5066410;28;20553;-59
2023/07/28 10:11:53;;;;;;;5.97;2.33;;;;;;;;;;5069151;28;20102;-59
2023/07/28 10:14:30;;;;;;;4.63;2.58;;;;;;;;;;5071378;28;20078;-59
2023/07/28 10:16:58;;;;;;;6.35;3.05;;;;;;;;;;5056447;28;20131;-59
2023/07/28 10:19:27;;;;;;;5.53;2.40;;;;;;;;;;5069922;28;20036;-59
2023/07/28 10:22:03;;;;;;;4.63;2.42;;;;;;;;;;5066172;28;20051;-59
2023/07/28 10:24:48;;;;;;;5.75;2.90;;;;;;;;;;5071646;28;20080;-59
2023/07/28 10:27:28;;;;;;;4.15;2.92;;;;;;;;;;5065403;28;20129;-59
2023/07/28 10:30:04;;;;;;;4.45;3.33;;;;;;;;;;5061158;28;20124;-58
2023/07/28 10:32:38;;;;;;;5.45;4.00;;;;;;;;;;5071234;28;20399;-59
2023/07/28 10:35:14;;;;;;;5.50;4.07;;;;;;;;;;5071309;28;20048;-59
2023/07/28 10:37:45;;;;;;;6.35;3.65;;;;;;;;;;5059296;28;20051;-59
2023/07/28 10:40:27;;;;;;;5.80;2.58;;;;;;;;;;5068228;28;20040;-59
2023/07/28 10:42:54;;;;;;;4.60;3.13;;;;;;;;;;5063223;28;20411;-59
2023/07/28 10:45:21;;;;;;;4.90;2.78;;;;;;;;;;5054692;28;20079;-60
2023/07/28 10:47:47;;;;;;;5.80;2.85;;;;;;;;;;5067587;28;20040;-59
2023/07/28 10:50:14;;;;;;;5.55;3.63;;;;;;;;;;5068354;28;20119;-59
2023/07/28 10:52:40;;;;;;;4.13;2.50;;;;;;;;;;5069391;28;20098;-59
2023/07/28 10:55:16;;;;;;;4.88;3.05;;;;;;;;;;5065972;28;20033;-59
2023/07/28 10:57:43;;;;;;;4.10;2.65;;;;;;;;;;5064480;28;20048;-59
2023/07/28 11:00:11;;;;;;;4.40;2.30;;;;;;;;;;5065358;28;20103;-59
2023/07/28 11:02:48;;;;;;;6.78;3.42;;;;;;;;;;5056246;28;20120;-59
2023/07/28 11:05:21;;;;;;;4.38;2.72;;;;;;;;;;5068177;28;20117;-59
2023/07/28 11:07:48;;;;;;;6.13;2.83;;;;;;;;;;5062933;28;20040;-59
2023/07/28 11:10:15;;;;;;;6.57;2.80;;;;;;;;;;5060696;28;20493;-59
2023/07/28 11:12:51;;;;;;;5.28;2.92;;;;;;;;;;5064514;28;20054;-59
2023/07/28 11:15:17;;;;;;;4.40;2.10;;;;;;;;;;5055832;28;20163;-59
2023/07/28 11:17:46;;;;;;;3.83;2.10;;;;;;;;;;5064415;28;20066;-59
2023/07/28 11:20:18;;;;;;;3.28;2.08;;;;;;;;;;5060692;28;20051;-58
2023/07/28 11:22:45;;;;;;;5.03;2.20;;;;;;;;;;5057101;28;20120;-64
2023/07/28 11:25:12;;;;;;;3.75;1.80;;;;;;;;;;5058466;28;20041;-58
2023/07/28 11:27:39;;;;;;;7.43;1.95;;;;;;;;;;5065732;28;20040;-59
2023/07/28 11:30:06;;;;;;;4.47;2.10;;;;;;;;;;5070038;28;20044;-58
2023/07/28 11:32:35;;;;;;;2.78;1.75;;;;;;;;;;5066087;28;20032;-59
2023/07/28 11:35:11;;;;;;;4.50;1.90;;;;;;;;;;5065650;28;20068;-78
2023/07/28 11:37:38;;;;;;;3.50;2.38;;;;;;;;;;5057159;28;20506;-58
2023/07/28 11:40:10;;;;;;;4.80;2.35;;;;;;;;;;5067445;28;20146;-58
2023/07/28 11:42:40;;;;;;;3.88;2.08;;;;;;;;;;5060481;28;20141;-59
2023/07/28 11:45:07;;;;;;;3.55;2.00;;;;;;;;;;5059486;28;20063;-58
2023/07/28 11:47:33;;;;;;;5.70;2.10;;;;;;;;;;5061050;28;20512;-59
2023/07/28 11:50:00;;;;;;;3.33;1.88;;;;;;;;;;5067826;28;20068;-59
2023/07/28 11:52:37;;;;;;;4.60;1.90;;;;;;;;;;5062120;28;20048;-59
2023/07/28 11:55:05;;;;;;;4.07;1.90;;;;;;;;;;5056517;28;20119;-68
2023/07/28 11:57:32;;;;;;;6.85;2.25;;;;;;;;;;5060603;28;20121;-59
2023/07/28 11:59:58;;;;;;;4.55;2.20;;;;;;;;;;5065173;28;20041;-59
2023/07/28 12:02:26;;;;;;;4.38;2.10;;;;;;;;;;5063620;28;20036;-58
2023/07/28 12:04:54;;;;;;;3.72;1.98;;;;;;;;;;5067400;28;20514;-59
2023/07/28 12:07:27;;;;;;;4.47;1.90;;;;;;;;;;5056826;28;20040;-59
2023/07/28 12:09:59;;;;;;;7.32;2.00;;;;;;;;;;5058367;28;20056;-59
2023/07/28 12:12:28;;;;;;;4.70;2.08;;;;;;;;;;5054964;28;20048;-59
2023/07/28 12:14:55;;;;;;;3.70;2.30;;;;;;;;;;5060856;28;20036;-59
2023/07/28 12:17:23;;;;;;;5.72;2.33;;;;;;;;;;5068906;28;20056;-59
2023/07/28 12:19:59;;;;;;;3.85;1.95;;;;;;;;;;5060728;28;20138;-59
2023/07/28 12:22:29;;;;;;;4.72;1.85;;;;;;;;;;5066556;28;20330;-58
2023/07/28 12:24:55;;;;;;;4.68;1.73;;;;;;;;;;5068765;28;20511;-59
2023/07/28 12:27:23;;;;;;;4.68;2.42;;;;;;;;;;5056732;28;20044;-59
2023/07/28 12:29:53;;;;;;;4.07;2.30;;;;;;;;;;5070221;28;20135;-59
2023/07/28 12:32:19;;;;;;;4.03;2.50;;;;;;;;;;5063857;28;20047;-60
2023/07/28 12:34:46;;;;;;;4.93;2.53;;;;;;;;;;5063873;28;20583;-59
2023/07/28 12:37:12;;;;;;;3.70;2.22;;;;;;;;;;5051687;28;20037;-59
2023/07/28 12:39:39;;;;;;;5.18;2.70;;;;;;;;;;5059212;28;20435;-59
2023/07/28 12:42:09;;;;;;;4.38;1.77;;;;;;;;;;5064062;28;20033;-59
2023/07/28 12:44:35;;;;;;;3.25;1.75;;;;;;;;;;5068657;28;20036;-59
2023/07/28 12:47:02;;;;;;;4.00;1.50;;;;;;;;;;5070376;28;20529;-59
2023/07/28 12:49:29;;;;;;;3.17;1.60;;;;;;;;;;5069928;28;20492;-59
2023/07/28 12:51:56;;;;;;;2.95;1.40;;;;;;;;;;5068114;28;20040;-59
2023/07/28 12:54:22;;;;;;;3.13;1.92;;;;;;;;;;5068034;28;20181;-59
2023/07/28 12:56:49;;;;;;;5.82;2.15;;;;;;;;;;5066031;28;20072;-59
2023/07/28 12:59:15;;;;;;;2.90;1.73;;;;;;;;;;5072154;28;20048;-59
2023/07/28 13:01:41;;;;;;;4.93;2.13;;;;;;;;;;5064561;28;20480;-59
2023/07/28 13:04:08;;;;;;;3.30;1.95;;;;;;;;;;5063855;28;20151;-59
2023/07/28 13:06:34;;;;;;;2.58;1.50;;;;;;;;;;5055971;28;20527;-59
2023/07/28 13:09:00;;;;;;;3.78;1.60;;;;;;;;;;5066796;28;20482;-59
2023/07/28 13:11:26;;;;;;;3.88;1.70;;;;;;;;;;5061962;28;20040;-59
2023/07/28 13:13:52;;;;;;;3.42;1.80;;;;;;;;;;5067210;28;20525;-59
2023/07/28 13:16:18;;;;;;;3.22;1.83;;;;;;;;;;5056490;28;20041;-59
2023/07/28 13:18:45;;;;;;;3.88;1.88;;;;;;;;;;5061256;28;20464;-59
2023/07/28 13:21:11;;;;;;;2.70;1.42;;;;;;;;;;5063288;28;20045;-59
2023/07/28 13:23:38;;;;;;;3.00;1.45;;;;;;;;;;5058908;28;20033;-58
2023/07/28 13:26:04;;;;;;;4.97;1.90;;;;;;;;;;5064702;28;20048;-59
2023/07/28 13:28:30;;;;;;;4.15;1.67;;;;;;;;;;5061599;28;20045;-69
2023/07/28 13:30:57;;;;;;;3.17;1.55;;;;;;;;;;5057987;28;20066;-59
2023/07/28 13:33:23;;;;;;;4.90;2.20;;;;;;;;;;5060930;28;20457;-59
2023/07/28 13:35:49;;;;;;;4.30;2.13;;;;;;;;;;5068140;28;20431;-59
2023/07/28 13:38:15;;;;;;;5.40;2.30;;;;;;;;;;5071690;28;20123;-59
2023/07/28 13:40:42;;;;;;;4.32;2.05;;;;;;;;;;5060086;28;20036;-59
2023/07/28 13:43:08;;;;;;;3.72;2.28;;;;;;;;;;5061201;28;20041;-59
2023/07/28 13:45:34;;;;;;;5.70;2.25;;;;;;;;;;5057063;28;20037;-59
2023/07/28 13:48:00;;;;;;;4.85;2.38;;;;;;;;;;5064172;28;20045;-59
2023/07/28 13:50:26;;;;;;;3.72;2.15;;;;;;;;;;5067979;28;20132;-59
2023/07/28 13:52:52;;;;;;;4.00;2.10;;;;;;;;;;5069455;28;20458;-59
2023/07/28 13:55:19;;;;;;;5.05;2.50;;;;;;;;;;5068456;28;20564;-59
2023/07/28 13:57:45;;;;;;;6.55;2.63;;;;;;;;;;5056893;28;20041;-58
2023/07/28 14:00:12;;;;;;;8.85;2.83;;;;;;;;;;5059289;28;20150;-59
2023/07/28 14:02:38;;;;;;;4.93;2.10;;;;;;;;;;5065663;28;20380;-59
2023/07/28 14:05:05;;;;;;;7.03;2.50;;;;;;;;;;5069005;28;20120;-59
2023/07/28 14:07:32;;;;;;;4.40;2.85;;;;;;;;;;5071811;28;20051;-59
2023/07/28 14:09:58;;;;;;;5.95;3.10;;;;;;;;;;5069402;28;20133;-59
2023/07/28 14:12:24;;;;;;;6.43;2.35;;;;;;;;;;5067033;28;21684;-58
2023/07/28 14:14:50;;;;;;;2.88;1.77;;;;;;;;;;5062450;28;20045;-59
2023/07/28 14:17:17;;;;;;;4.00;2.33;;;;;;;;;;5069880;28;20044;-59
2023/07/28 14:19:43;;;;;;;3.38;1.60;;;;;;;;;;5066951;28;20119;-59
2023/07/28 14:22:09;;;;;;;3.67;1.40;;;;;;;;;;5068125;28;20131;-59
2023/07/28 14:24:36;;;;;;;4.55;2.10;;;;;;;;;;5069199;28;20084;-59
2023/07/28 14:27:02;;;;;;;5.28;2.63;;;;;;;;;;5059244;28;20473;-58
2023/07/28 14:29:29;;;;;;;5.88;2.50;;;;;;;;;;5070274;28;20440;-59